Terminal Aerodrome Forecast
Issued by NWS

Home | Current Version | Previous Version | Graphics & Text | Print | Product List | Glossary On
Versions: 1 2 3 4 5 6 7 8 9 10 11 12 13 14 15
000
FTUS43 KBIS 231250 AAA
TAFDIK
TAF AMD
KDIK 231250Z 2313/2412 03013KT P6SM BKN150
     FM231900 02017KT P6SM OVC070
     FM232300 02016G25KT 5SM RA BR OVC025
     FM240700 35008KT P6SM VCSH SCT025 BKN070
     FM241000 35008KT P6SM BKN120=

USA.gov is the U.S. government's official web portal to all federal, state and local government web resources and services.